createdAt,value
2023-04-18T00:01:07.700Z,40.50
2023-04-18T00:03:39.156Z,40.29
2023-04-18T00:06:15.573Z,40.94
2023-04-18T00:08:46.830Z,40.76
2023-04-18T00:11:21.052Z,41.01
2023-04-18T00:13:50.661Z,40.95
2023-04-18T00:16:20.527Z,41.19
2023-04-18T00:19:01.821Z,41.54
2023-04-18T00:21:33.647Z,41.61
2023-04-18T00:24:02.682Z,41.00
2023-04-18T00:26:31.901Z,41.22
2023-04-18T00:29:01.236Z,41.18
2023-04-18T00:31:36.786Z,41.52
2023-04-18T00:34:06.079Z,41.48
2023-04-18T00:36:37.255Z,41.77
2023-04-18T00:39:11.801Z,41.32
2023-04-18T00:41:46.264Z,41.47
2023-04-18T00:44:15.613Z,41.55
2023-04-18T00:46:45.155Z,41.60
2023-04-18T00:49:15.117Z,41.45
2023-04-18T00:51:47.393Z,41.94
2023-04-18T00:54:24.875Z,42.06
2023-04-18T00:56:54.457Z,41.97
2023-04-18T00:59:23.969Z,42.12
2023-04-18T01:01:58.471Z,42.07
2023-04-18T01:04:27.907Z,41.80
2023-04-18T01:06:59.204Z,42.38
2023-04-18T01:09:33.161Z,42.42
2023-04-18T01:14:38.542Z,42.29
2023-04-18T01:17:10.689Z,42.43
2023-04-18T01:19:40.049Z,42.44
2023-04-18T01:22:15.198Z,42.89
2023-04-18T01:24:46.609Z,43.03
2023-04-18T01:27:17.208Z,42.97
2023-04-18T01:29:51.745Z,43.09
2023-04-18T01:32:20.991Z,43.15
2023-04-18T01:34:52.821Z,43.36
2023-04-18T01:37:21.725Z,42.43
2023-04-18T01:39:53.531Z,43.18
2023-04-18T01:42:33.728Z,43.61
2023-04-18T01:45:03.631Z,43.39
2023-04-18T01:47:33.312Z,43.47
2023-04-18T01:50:10.441Z,44.04
2023-04-18T01:52:39.746Z,43.55
2023-04-18T01:55:17.238Z,43.95
2023-04-18T01:57:46.880Z,43.90
2023-04-18T02:00:16.886Z,43.59
2023-04-18T02:05:26.764Z,43.55
2023-04-18T02:07:55.905Z,43.68
2023-04-18T02:10:32.204Z,44.06
2023-04-18T02:13:06.759Z,43.74
2023-04-18T02:15:36.474Z,43.86
2023-04-18T02:18:06.541Z,43.78
2023-04-18T02:20:36.010Z,43.87
2023-04-18T02:23:05.776Z,43.81
2023-04-18T02:25:42.141Z,44.13
2023-04-18T02:28:11.559Z,43.80
2023-04-18T02:30:40.666Z,44.45
2023-04-18T02:33:09.989Z,44.19
2023-04-18T02:35:40.306Z,44.74
2023-04-18T02:38:09.526Z,45.03
2023-04-18T02:40:47.121Z,44.86
2023-04-18T02:43:16.454Z,45.06
2023-04-18T02:45:45.617Z,45.02
2023-04-18T02:48:15.195Z,45.31
2023-04-18T02:50:44.475Z,45.72
2023-04-18T02:53:14.018Z,45.60
2023-04-18T02:55:57.864Z,46.20
2023-04-18T02:58:46.882Z,45.84
2023-04-18T03:01:46.178Z,45.85
2023-04-18T03:04:18.274Z,46.24
2023-04-18T03:07:07.929Z,46.12
2023-04-18T03:09:39.313Z,46.80
2023-04-18T03:12:19.721Z,46.40
2023-04-18T03:14:50.072Z,46.47
2023-04-18T03:20:00.541Z,46.38
2023-04-18T03:22:36.190Z,47.01
2023-04-18T03:25:06.645Z,47.30
2023-04-18T03:27:58.309Z,48.11
2023-04-18T03:30:28.723Z,47.71
2023-04-18T03:35:37.822Z,47.09
2023-04-18T03:38:07.860Z,47.24
2023-04-18T03:40:41.885Z,47.54
2023-04-18T03:46:03.267Z,47.56
2023-04-18T03:48:35.477Z,47.46
2023-04-18T03:51:13.784Z,47.07
2023-04-18T03:53:43.701Z,47.00
2023-04-18T03:56:13.333Z,47.04
2023-04-18T03:58:56.018Z,47.18
2023-04-18T04:01:25.669Z,46.86
2023-04-18T04:04:09.050Z,47.13
2023-04-18T04:06:38.596Z,46.84
2023-04-18T04:09:07.901Z,46.23
2023-04-18T04:11:43.091Z,46.11
2023-04-18T04:14:25.895Z,45.88
2023-04-18T04:16:56.068Z,45.50
2023-04-18T04:19:25.953Z,45.54
2023-04-18T04:22:09.280Z,44.94
2023-04-18T04:24:39.297Z,45.00
2023-04-18T04:27:10.789Z,44.88
2023-04-18T04:29:43.440Z,45.35
2023-04-18T04:32:13.204Z,45.30
2023-04-18T04:34:44.553Z,45.31
2023-04-18T04:37:15.013Z,45.06
2023-04-18T04:39:56.676Z,45.15
2023-04-18T04:42:35.612Z,45.23
2023-04-18T04:45:19.728Z,45.46
2023-04-18T04:47:49.534Z,44.93
2023-04-18T04:50:20.645Z,44.14
2023-04-18T04:52:50.313Z,44.23
2023-04-18T04:55:20.675Z,43.66
2023-04-18T04:57:55.851Z,43.94
2023-04-18T05:00:47.596Z,43.78
2023-04-18T05:03:17.304Z,43.65
2023-04-18T05:05:47.096Z,43.42
2023-04-18T05:08:16.401Z,43.82
2023-04-18T05:10:45.714Z,43.16
2023-04-18T05:13:15.096Z,43.23
2023-04-18T05:15:44.442Z,43.29
2023-04-18T05:23:55.494Z,43.51
2023-04-18T05:26:25.136Z,43.99
2023-04-18T05:29:19.453Z,43.52
2023-04-18T05:31:49.251Z,43.19
2023-04-18T05:36:55.626Z,43.66
2023-04-18T05:39:25.117Z,43.44
2023-04-18T05:41:54.479Z,43.23
2023-04-18T05:44:38.769Z,43.33
2023-04-18T05:47:08.195Z,43.29
2023-04-18T05:49:41.297Z,43.53
2023-04-18T05:52:11.187Z,43.19
2023-04-18T05:54:40.868Z,42.67
2023-04-18T05:57:10.181Z,42.52
2023-04-18T05:59:39.874Z,41.78
2023-04-18T06:02:15.393Z,41.30
2023-04-18T06:04:48.330Z,40.89
2023-04-18T06:07:18.428Z,40.66
2023-04-18T06:09:49.483Z,39.79
2023-04-18T06:12:18.877Z,39.91
2023-04-18T06:14:48.396Z,39.38
2023-04-18T06:17:17.774Z,39.36
2023-04-18T06:19:49.481Z,39.03
2023-04-18T06:22:23.523Z,39.28
2023-04-18T06:24:55.312Z,39.28
2023-04-18T06:27:31.187Z,39.55
2023-04-18T06:30:01.973Z,39.04
2023-04-18T06:35:24.127Z,38.69
2023-04-18T06:37:54.801Z,38.25
2023-04-18T06:40:24.454Z,37.51
2023-04-18T06:42:53.890Z,37.14
2023-04-18T06:45:23.585Z,36.28
2023-04-18T06:47:59.432Z,36.72
2023-04-18T06:50:31.474Z,36.95
2023-04-18T06:53:00.831Z,37.27
2023-04-18T06:55:37.707Z,37.25
2023-04-18T06:58:08.201Z,37.80
2023-04-18T07:00:42.767Z,38.36
2023-04-18T07:03:12.915Z,38.30
2023-04-18T07:05:44.785Z,38.11
2023-04-18T07:08:14.450Z,38.14
2023-04-18T07:10:44.188Z,37.49
2023-04-18T07:13:13.449Z,36.92
2023-04-18T07:15:47.858Z,35.98
2023-04-18T07:18:36.543Z,36.26
2023-04-18T07:21:10.620Z,36.22
2023-04-18T07:23:40.482Z,36.53
2023-04-18T07:26:11.110Z,36.18
2023-04-18T07:28:40.480Z,35.77
2023-04-18T07:31:12.250Z,36.06
2023-04-18T07:33:41.643Z,36.15
2023-04-18T07:36:14.130Z,35.86
2023-04-18T07:38:48.720Z,35.53
2023-04-18T07:41:18.049Z,35.88
2023-04-18T07:43:47.409Z,35.65
2023-04-18T07:46:16.809Z,35.99
2023-04-18T07:48:46.300Z,35.68
2023-04-18T07:51:18.216Z,36.13
2023-04-18T07:53:47.850Z,35.52
2023-04-18T07:56:17.149Z,35.21
2023-04-18T08:01:23.952Z,34.69
2023-04-18T08:03:54.482Z,34.00
2023-04-18T08:06:32.185Z,34.36
2023-04-18T08:09:04.061Z,34.64
2023-04-18T08:11:38.540Z,34.49
2023-04-18T08:14:07.846Z,34.51
2023-04-18T08:16:37.117Z,34.38
2023-04-18T08:19:21.795Z,33.99
2023-04-18T08:21:54.080Z,33.14
2023-04-18T08:24:30.413Z,33.19
2023-04-18T08:27:00.033Z,33.46
2023-04-18T08:29:29.821Z,33.23
2023-04-18T08:31:59.435Z,32.92
2023-04-18T08:34:29.007Z,33.16
2023-04-18T08:37:05.540Z,32.85
2023-04-18T08:39:35.090Z,32.24
2023-04-18T08:42:05.592Z,32.17
2023-04-18T08:44:40.829Z,32.16
2023-04-18T08:47:11.991Z,31.00
2023-04-18T08:49:47.467Z,30.49
2023-04-18T08:52:19.094Z,31.14
2023-04-18T08:54:49.371Z,31.60
2023-04-18T08:57:26.596Z,31.21
2023-04-18T08:59:56.659Z,30.62
2023-04-18T09:02:38.608Z,30.68
2023-04-18T09:05:14.607Z,30.62
2023-04-18T09:07:46.428Z,30.26
2023-04-18T09:10:27.185Z,30.46
2023-04-18T09:13:02.971Z,30.32
2023-04-18T09:15:34.210Z,30.62
2023-04-18T09:18:04.297Z,30.39
2023-04-18T09:20:40.748Z,30.31
2023-04-18T09:23:15.158Z,30.37
2023-04-18T09:25:47.647Z,30.27
2023-04-18T09:28:26.633Z,30.08
2023-04-18T09:30:58.496Z,30.62
2023-04-18T09:33:37.732Z,31.00
2023-04-18T09:36:20.236Z,31.00
2023-04-18T09:39:02.151Z,30.96
2023-04-18T09:41:32.386Z,31.71
2023-04-18T09:46:47.617Z,31.05
2023-04-18T09:49:18.096Z,30.37
2023-04-18T09:51:53.306Z,30.34
2023-04-18T09:54:34.808Z,30.51
2023-04-18T09:57:13.403Z,30.67
2023-04-18T09:59:47.429Z,30.82
2023-04-18T10:02:26.878Z,30.76
2023-04-18T10:04:57.887Z,30.95
2023-04-18T10:07:34.383Z,31.51
2023-04-18T10:10:06.054Z,31.71
2023-04-18T10:15:17.925Z,32.42
2023-04-18T10:18:03.391Z,33.64
2023-04-18T10:20:35.511Z,34.90
2023-04-18T10:23:43.253Z,34.79
2023-04-18T10:26:14.568Z,34.91
2023-04-18T10:28:56.270Z,35.68
2023-04-18T10:31:31.599Z,36.28
2023-04-18T10:34:05.721Z,36.68
2023-04-18T10:36:35.731Z,36.57
2023-04-18T10:39:21.170Z,36.88
2023-04-18T10:41:53.507Z,36.67
2023-04-18T10:44:29.248Z,37.05
2023-04-18T10:47:27.893Z,37.23
2023-04-18T10:50:07.850Z,37.99
2023-04-18T10:52:37.225Z,37.70
2023-04-18T10:55:25.782Z,37.79
2023-04-18T10:58:03.428Z,37.93
2023-04-18T11:00:33.787Z,37.90
2023-04-18T11:03:03.281Z,37.97
2023-04-18T11:05:32.897Z,38.38
2023-04-18T11:08:02.076Z,39.13
2023-04-18T11:10:31.383Z,39.34
2023-04-18T11:13:05.718Z,39.28
2023-04-18T11:15:39.611Z,38.88
2023-04-18T11:18:11.347Z,38.79
2023-04-18T11:20:40.842Z,38.17
2023-04-18T11:26:02.954Z,39.00
2023-04-18T11:28:34.313Z,38.83
2023-04-18T11:31:08.911Z,38.62
2023-04-18T11:33:38.399Z,38.12
2023-04-18T11:36:22.210Z,38.49
2023-04-18T11:38:51.939Z,38.34
2023-04-18T11:41:36.129Z,37.98
2023-04-18T11:44:08.257Z,37.71
2023-04-18T11:46:40.864Z,37.45
2023-04-18T11:49:10.352Z,37.62
2023-04-18T11:51:43.312Z,37.18
2023-04-18T11:54:40.877Z,37.68
2023-04-18T11:57:23.260Z,37.28
2023-04-18T11:59:58.872Z,37.47
2023-04-18T12:02:48.906Z,37.50
2023-04-18T12:05:36.931Z,37.27
2023-04-18T12:08:11.591Z,37.13
2023-04-18T12:13:33.193Z,36.79
2023-04-18T12:16:18.998Z,37.24
2023-04-18T12:19:14.054Z,37.32
2023-04-18T12:24:35.838Z,37.03
2023-04-18T12:27:05.243Z,37.10
2023-04-18T12:29:41.597Z,37.10
2023-04-18T12:32:16.855Z,37.06
2023-04-18T12:34:51.437Z,37.11
2023-04-18T12:37:25.196Z,36.98
2023-04-18T12:39:54.705Z,36.54
2023-04-18T12:42:24.190Z,36.41
2023-04-18T12:52:06.013Z,37.01
2023-04-18T12:54:37.992Z,37.79
2023-04-18T12:57:07.164Z,37.34
2023-04-18T12:59:36.341Z,37.45
2023-04-18T13:02:13.737Z,37.32
2023-04-18T13:05:10.073Z,37.42
2023-04-18T13:07:42.301Z,36.84
2023-04-18T13:10:30.714Z,36.98
2023-04-18T13:13:06.601Z,36.94
2023-04-18T13:15:54.353Z,37.11
2023-04-18T13:18:42.174Z,36.43
2023-04-18T13:21:11.527Z,36.09
2023-04-18T13:23:43.422Z,36.76
2023-04-18T13:26:12.897Z,36.75
2023-04-18T13:28:55.223Z,36.53
2023-04-18T13:31:24.729Z,36.12
2023-04-18T13:34:12.777Z,36.15
2023-04-18T13:36:42.230Z,36.55
2023-04-18T13:39:19.833Z,36.72
2023-04-18T13:42:04.743Z,36.72
2023-04-18T13:47:22.392Z,36.81
2023-04-18T13:49:51.840Z,36.75
2023-04-18T13:52:26.280Z,36.62
2023-04-18T13:55:10.671Z,36.64
2023-04-18T13:57:40.855Z,37.28
2023-04-18T14:00:13.650Z,37.40
2023-04-18T14:02:48.336Z,38.26
2023-04-18T14:05:17.803Z,38.07
2023-04-18T14:08:05.550Z,37.75
2023-04-18T14:10:37.055Z,38.79
2023-04-18T14:13:11.376Z,38.97
2023-04-18T14:15:40.759Z,38.78
2023-04-18T14:18:17.508Z,39.31
2023-04-18T14:20:48.178Z,39.56
2023-04-18T14:23:28.132Z,40.17
2023-04-18T14:26:04.653Z,40.17
2023-04-18T14:28:35.478Z,39.80
2023-04-18T14:31:06.224Z,39.42
2023-04-18T14:33:40.787Z,39.70
2023-04-18T14:36:11.112Z,39.95
2023-04-18T14:38:53.499Z,40.49
2023-04-18T14:41:25.314Z,40.64
2023-04-18T14:43:54.438Z,40.57
2023-04-18T14:46:23.619Z,40.53
2023-04-18T14:48:53.084Z,40.79
2023-04-18T14:51:25.813Z,40.56
2023-04-18T14:54:14.026Z,40.92
2023-04-18T14:56:45.398Z,40.70
2023-04-18T14:59:16.708Z,40.68
2023-04-18T15:01:46.501Z,40.66
2023-04-18T15:04:16.267Z,40.64
2023-04-18T15:06:59.054Z,40.84
2023-04-18T15:09:28.621Z,40.48
2023-04-18T15:12:00.198Z,41.16
2023-04-18T15:14:31.158Z,40.62
2023-04-18T15:17:02.645Z,40.94
2023-04-18T15:19:34.134Z,40.85
2023-04-18T15:22:10.515Z,40.98
2023-04-18T15:24:39.922Z,41.06
2023-04-18T15:27:12.026Z,40.72
2023-04-18T15:29:41.289Z,41.17
2023-04-18T15:32:11.134Z,40.66
2023-04-18T15:34:41.045Z,41.25
2023-04-18T15:37:10.447Z,40.88
2023-04-18T15:39:55.113Z,40.72
2023-04-18T15:42:26.443Z,40.94
2023-04-18T15:45:01.032Z,41.31
2023-04-18T15:50:16.638Z,41.36
2023-04-18T15:52:46.039Z,41.33
2023-04-18T15:55:15.439Z,41.89
2023-04-18T15:57:46.712Z,41.60
2023-04-18T16:00:22.975Z,41.74
2023-04-18T16:02:52.715Z,42.03
2023-04-18T16:05:22.408Z,42.42
2023-04-18T16:07:57.814Z,42.21
2023-04-18T16:10:27.153Z,42.04
2023-04-18T16:13:04.205Z,42.28
2023-04-18T16:15:35.177Z,42.49
2023-04-18T16:18:04.593Z,43.13
2023-04-18T16:20:33.802Z,42.79
2023-04-18T16:23:09.216Z,43.06
2023-04-18T16:25:38.826Z,43.03
2023-04-18T16:28:10.279Z,43.72
2023-04-18T16:30:43.367Z,43.58
2023-04-18T16:33:20.493Z,44.07
2023-04-18T16:35:50.199Z,43.71
2023-04-18T16:38:23.108Z,44.21
2023-04-18T16:40:52.441Z,43.95
2023-04-18T16:43:42.212Z,44.26
2023-04-18T16:46:13.368Z,43.90
2023-04-18T16:51:19.532Z,44.14
2023-04-18T16:53:48.884Z,44.06
2023-04-18T16:56:18.295Z,43.96
2023-04-18T16:58:49.563Z,43.85
2023-04-18T17:01:24.200Z,43.62
2023-04-18T17:03:53.869Z,43.81
2023-04-18T17:06:24.940Z,43.92
2023-04-18T17:08:54.525Z,44.23
2023-04-18T17:11:43.662Z,44.04
2023-04-18T17:14:16.273Z,43.91
2023-04-18T17:16:46.032Z,43.68
2023-04-18T17:19:15.602Z,43.64
2023-04-18T17:21:46.079Z,44.20
2023-04-18T17:24:15.622Z,44.04
2023-04-18T17:26:45.200Z,44.13
2023-04-18T17:29:18.180Z,43.87
2023-04-18T17:31:47.464Z,44.53
2023-04-18T17:34:16.807Z,44.24
2023-04-18T17:36:46.388Z,44.22
2023-04-18T17:39:16.716Z,44.18
2023-04-18T17:41:47.672Z,44.07
2023-04-18T17:44:18.995Z,44.09
2023-04-18T17:46:50.670Z,44.77
2023-04-18T17:49:20.075Z,44.36
2023-04-18T17:51:54.371Z,44.44
2023-04-18T17:54:25.175Z,44.30
2023-04-18T17:56:54.527Z,44.37
2023-04-18T17:59:26.046Z,45.03
2023-04-18T18:02:07.295Z,44.50
2023-04-18T18:04:36.994Z,44.69
2023-04-18T18:07:07.809Z,44.46
2023-04-18T18:09:42.210Z,44.46
2023-04-18T18:12:31.989Z,44.66
2023-04-18T18:15:04.298Z,44.75
2023-04-18T18:17:35.391Z,44.60
2023-04-18T18:20:05.298Z,44.94
2023-04-18T18:22:35.280Z,44.63
2023-04-18T18:25:05.670Z,44.88
2023-04-18T18:27:54.143Z,44.84
2023-04-18T18:30:25.789Z,44.82
2023-04-18T18:33:00.408Z,44.82
2023-04-18T18:35:29.694Z,44.72
2023-04-18T18:37:59.289Z,45.41
2023-04-18T18:40:41.530Z,45.06
2023-04-18T18:43:11.020Z,45.12
2023-04-18T18:45:42.629Z,45.49
2023-04-18T18:48:11.911Z,45.29
2023-04-18T18:50:41.566Z,45.48
2023-04-18T18:53:16.597Z,45.75
2023-04-18T18:55:46.030Z,45.32
2023-04-18T18:58:15.346Z,45.14
2023-04-18T19:01:01.409Z,45.57
2023-04-18T19:03:31.077Z,45.43
2023-04-18T19:06:03.506Z,45.65
2023-04-18T19:08:33.162Z,45.46
2023-04-18T19:11:02.419Z,45.78
2023-04-18T19:13:31.879Z,46.09
2023-04-18T19:16:03.066Z,45.97
2023-04-18T19:18:32.843Z,45.43
2023-04-18T19:21:02.146Z,46.07
2023-04-18T19:23:32.823Z,46.02
2023-04-18T19:26:02.780Z,45.95
2023-04-18T19:28:38.184Z,45.97
2023-04-18T19:31:09.990Z,46.65
2023-04-18T19:33:39.943Z,46.73
2023-04-18T19:36:09.373Z,46.17
2023-04-18T19:38:57.007Z,46.50
2023-04-18T19:41:27.494Z,46.47
2023-04-18T19:43:56.852Z,46.69
2023-04-18T19:49:18.202Z,46.49
2023-04-18T19:51:48.548Z,46.22
2023-04-18T19:54:30.876Z,46.16
2023-04-18T19:57:00.778Z,46.53
2023-04-18T19:59:30.050Z,45.99
2023-04-18T20:02:06.865Z,46.11
2023-04-18T20:04:37.081Z,46.17
2023-04-18T20:07:06.645Z,46.63
2023-04-18T20:09:42.019Z,46.20
2023-04-18T20:12:11.577Z,46.48
2023-04-18T20:15:25.826Z,46.65
2023-04-18T20:18:10.128Z,46.79
2023-04-18T20:21:00.006Z,46.88
2023-04-18T20:23:29.507Z,47.03
2023-04-18T20:26:13.810Z,46.62
2023-04-18T20:28:43.262Z,47.04
2023-04-18T20:31:22.921Z,46.63
2023-04-18T20:33:54.445Z,46.92
2023-04-18T20:36:58.088Z,46.71
2023-04-18T20:39:27.665Z,46.33
2023-04-18T20:42:15.833Z,46.32
2023-04-18T20:44:46.372Z,46.24
2023-04-18T20:47:16.125Z,46.11
2023-04-18T20:49:52.464Z,45.93
2023-04-18T20:52:26.952Z,46.88
2023-04-18T20:54:56.351Z,46.34
2023-04-18T20:57:25.656Z,46.34
2023-04-18T21:00:15.819Z,46.29
2023-04-18T21:02:46.498Z,46.41
2023-04-18T21:05:18.200Z,46.26
2023-04-18T21:07:48.974Z,46.20
2023-04-18T21:10:25.303Z,45.34
2023-04-18T21:12:55.125Z,45.81
2023-04-18T21:15:30.163Z,45.98
2023-04-18T21:17:59.873Z,45.55
2023-04-18T21:20:31.497Z,45.13
2023-04-18T21:25:54.364Z,45.01
2023-04-18T21:28:23.881Z,45.04
2023-04-18T21:30:53.568Z,44.67
2023-04-18T21:33:24.287Z,44.51
2023-04-18T21:36:01.445Z,45.03
2023-04-18T21:38:44.388Z,44.97
2023-04-18T21:41:16.631Z,45.09
2023-04-18T21:46:44.198Z,44.27
2023-04-18T21:49:19.947Z,44.45
2023-04-18T21:51:51.303Z,44.38
2023-04-18T21:54:20.796Z,44.34
2023-04-18T21:57:08.608Z,44.14
2023-04-18T21:59:44.692Z,43.78
2023-04-18T22:02:25.597Z,44.09
2023-04-18T22:04:55.319Z,43.73
2023-04-18T22:07:26.701Z,43.76
2023-04-18T22:10:05.523Z,43.88
2023-04-18T22:12:36.317Z,43.91
2023-04-18T22:15:06.165Z,43.72
2023-04-18T22:17:37.587Z,43.83
2023-04-18T22:20:27.837Z,43.87
2023-04-18T22:22:59.122Z,43.64
2023-04-18T22:25:28.572Z,43.87
2023-04-18T22:28:03.480Z,44.12
2023-04-18T22:30:33.026Z,43.69
2023-04-18T22:33:02.292Z,43.86
2023-04-18T22:35:41.934Z,44.40
2023-04-18T22:38:13.508Z,44.47
2023-04-18T22:43:24.634Z,44.87
2023-04-18T22:45:54.296Z,44.88
2023-04-18T22:48:28.623Z,44.34
2023-04-18T22:50:57.903Z,44.10
2023-04-18T22:53:29.097Z,44.27
2023-04-18T22:55:58.829Z,44.05
2023-04-18T22:58:28.102Z,43.57
2023-04-18T23:01:02.320Z,43.74
2023-04-18T23:03:34.312Z,43.17
2023-04-18T23:06:04.320Z,43.28
2023-04-18T23:08:35.466Z,43.21
2023-04-18T23:11:09.749Z,43.67
2023-04-18T23:13:38.948Z,43.70
2023-04-18T23:16:09.549Z,43.78
2023-04-18T23:18:44.153Z,44.00
2023-04-18T23:21:14.028Z,44.22
2023-04-18T23:23:46.225Z,43.71
2023-04-18T23:26:16.109Z,43.48
2023-04-18T23:28:45.580Z,43.81
2023-04-18T23:31:21.677Z,43.70
2023-04-18T23:33:52.245Z,43.84
2023-04-18T23:36:21.583Z,44.06
2023-04-18T23:38:57.867Z,44.00
2023-04-18T23:41:45.174Z,43.86
2023-04-18T23:44:14.625Z,43.63
2023-04-18T23:46:44.006Z,44.13
2023-04-18T23:49:18.517Z,44.07
2023-04-18T23:51:47.888Z,43.89
2023-04-18T23:54:24.167Z,43.89
2023-04-18T23:56:53.522Z,44.02
2023-04-18T23:59:22.778Z,44.07
